Terminal Aerodrome Forecast
Issued by NWS

Home | Current Version | Previous Version | Text Only | Print | Product List | Glossary On
Versions: 1 2 3 4 5 6 7 8 9 10 11 12 13 14 15 16 17 18 19 20 21 22 23 24 25 26 27 28 29
000
FTUS43 KGLD 011741
TAFMCK
TAF
KMCK 011741Z 0118/0218 04004KT P6SM SCT150
     FM020600 33010G20KT P6SM VCTS BKN050CB
      TEMPO 0206/0210 VRB20G30KT 4SM -SHRA BKN025
     FM021000 34016G29KT P6SM BKN010=

USA.gov is the U.S. government's official web portal to all federal, state and local government web resources and services.